sensor_id;sensor_type;location;lat;lon;timestamp;pressure;altitude;pressure_sealevel;temperature;humidity
71770;BME280;59605;52.122;5.420;2022-10-16T00:01:09;101032.47;;;20.79;59.42
71770;BME280;59605;52.122;5.420;2022-10-16T00:03:41;101024.63;;;20.79;59.44
71770;BME280;59605;52.122;5.420;2022-10-16T00:06:09;101032.47;;;20.79;59.40
71770;BME280;59605;52.122;5.420;2022-10-16T00:08:37;101027.25;;;20.79;59.38
71770;BME280;59605;52.122;5.420;2022-10-16T00:11:06;101024.75;;;20.78;59.42
71770;BME280;59605;52.122;5.420;2022-10-16T00:13:34;101029.16;;;20.77;59.33
71770;BME280;59605;52.122;5.420;2022-10-16T00:16:01;101031.78;;;20.77;59.35
71770;BME280;59605;52.122;5.420;2022-10-16T00:18:28;101029.16;;;20.77;59.40
71770;BME280;59605;52.122;5.420;2022-10-16T00:20:55;101018.84;;;20.75;59.49
71770;BME280;59605;52.122;5.420;2022-10-16T00:23:22;101030.97;;;20.77;59.26
71770;BME280;59605;52.122;5.420;2022-10-16T00:25:56;101038.66;;;20.78;59.23
71770;BME280;59605;52.122;5.420;2022-10-16T00:28:23;101035.34;;;20.76;59.19
71770;BME280;59605;52.122;5.420;2022-10-16T00:30:50;101031.78;;;20.77;59.31
71770;BME280;59605;52.122;5.420;2022-10-16T00:33:16;101036.31;;;20.75;59.38
71770;BME280;59605;52.122;5.420;2022-10-16T00:35:42;101044.13;;;20.75;58.90
71770;BME280;59605;52.122;5.420;2022-10-16T00:38:10;101021.44;;;20.75;59.34
71770;BME280;59605;52.122;5.420;2022-10-16T00:40:36;101021.56;;;20.74;59.16
71770;BME280;59605;52.122;5.420;2022-10-16T00:43:09;101018.00;;;20.75;59.26
71770;BME280;59605;52.122;5.420;2022-10-16T00:45:38;101025.00;;;20.74;59.02
71770;BME280;59605;52.122;5.420;2022-10-16T00:48:06;101026.91;;;20.72;59.30
71770;BME280;59605;52.122;5.420;2022-10-16T00:50:35;101032.00;;;20.74;59.33
71770;BME280;59605;52.122;5.420;2022-10-16T00:53:02;101031.19;;;20.73;59.22
71770;BME280;59605;52.122;5.420;2022-10-16T00:55:29;101029.53;;;20.72;59.09
71770;BME280;59605;52.122;5.420;2022-10-16T00:57:57;101032.97;;;20.73;59.00
71770;BME280;59605;52.122;5.420;2022-10-16T01:00:25;101033.81;;;20.73;58.81
71770;BME280;59605;52.122;5.420;2022-10-16T01:02:58;101033.81;;;20.73;59.23
71770;BME280;59605;52.122;5.420;2022-10-16T01:05:43;101031.28;;;20.72;59.11
71770;BME280;59605;52.122;5.420;2022-10-16T01:08:34;101036.50;;;20.72;59.05
71770;BME280;59605;52.122;5.420;2022-10-16T01:11:17;101040.91;;;20.71;58.95
71770;BME280;59605;52.122;5.420;2022-10-16T01:13:53;101044.34;;;20.72;58.99
71770;BME280;59605;52.122;5.420;2022-10-16T01:16:36;101041.84;;;20.70;59.25
71770;BME280;59605;52.122;5.420;2022-10-16T01:19:13;101048.88;;;20.70;58.92
71770;BME280;59605;52.122;5.420;2022-10-16T01:21:44;101044.47;;;20.70;59.01
71770;BME280;59605;52.122;5.420;2022-10-16T01:24:40;101027.16;;;20.69;59.21
71770;BME280;59605;52.122;5.420;2022-10-16T01:27:24;101027.97;;;20.70;58.89
71770;BME280;59605;52.122;5.420;2022-10-16T01:29:54;101035.81;;;20.70;58.85
71770;BME280;59605;52.122;5.420;2022-10-16T01:32:36;101038.41;;;20.70;59.35
71770;BME280;59605;52.122;5.420;2022-10-16T01:38:23;101034.13;;;20.69;59.24
71770;BME280;59605;52.122;5.420;2022-10-16T01:40:45;101027.28;;;20.68;59.01
71770;BME280;59605;52.122;5.420;2022-10-16T01:43:16;101031.63;;;20.67;59.27
71770;BME280;59605;52.122;5.420;2022-10-16T01:45:45;101029.88;;;20.68;59.00
71770;BME280;59605;52.122;5.420;2022-10-16T01:48:14;101038.53;;;20.68;59.42
71770;BME280;59605;52.122;5.420;2022-10-16T01:50:44;101029.88;;;20.68;59.10
71770;BME280;59605;52.122;5.420;2022-10-16T01:53:13;101023.81;;;20.67;59.28
71770;BME280;59605;52.122;5.420;2022-10-16T01:55:44;101026.41;;;20.67;58.92
71770;BME280;59605;52.122;5.420;2022-10-16T01:58:13;101030.81;;;20.67;59.06
71770;BME280;59605;52.122;5.420;2022-10-16T02:00:43;101029.03;;;20.67;58.97
71770;BME280;59605;52.122;5.420;2022-10-16T02:03:13;101024.78;;;20.66;59.29
71770;BME280;59605;52.122;5.420;2022-10-16T02:08:08;101017.75;;;20.67;58.89
71770;BME280;59605;52.122;5.420;2022-10-16T02:10:36;101022.25;;;20.65;58.99
71770;BME280;59605;52.122;5.420;2022-10-16T02:13:10;101025.69;;;20.65;59.14
71770;BME280;59605;52.122;5.420;2022-10-16T02:15:36;101021.28;;;20.66;59.09
71770;BME280;59605;52.122;5.420;2022-10-16T02:18:04;101028.31;;;20.65;58.81
71770;BME280;59605;52.122;5.420;2022-10-16T02:20:36;101024.00;;;20.64;58.79
71770;BME280;59605;52.122;5.420;2022-10-16T02:23:07;101032.69;;;20.65;58.91
71770;BME280;59605;52.122;5.420;2022-10-16T02:25:40;101030.09;;;20.65;58.73
71770;BME280;59605;52.122;5.420;2022-10-16T02:28:23;101037.06;;;20.64;58.81
71770;BME280;59605;52.122;5.420;2022-10-16T02:30:56;101038.88;;;20.64;58.75
71770;BME280;59605;52.122;5.420;2022-10-16T02:33:25;101037.94;;;20.65;58.97
71770;BME280;59605;52.122;5.420;2022-10-16T02:35:53;101032.78;;;20.63;58.92
71770;BME280;59605;52.122;5.420;2022-10-16T02:38:21;101038.00;;;20.63;59.13
71770;BME280;59605;52.122;5.420;2022-10-16T02:40:48;101032.78;;;20.63;58.83
71770;BME280;59605;52.122;5.420;2022-10-16T02:43:15;101042.41;;;20.63;58.87
71770;BME280;59605;52.122;5.420;2022-10-16T02:45:42;101045.03;;;20.63;58.97
71770;BME280;59605;52.122;5.420;2022-10-16T02:48:09;101038.13;;;20.62;58.93
71770;BME280;59605;52.122;5.420;2022-10-16T02:50:35;101048.56;;;20.62;58.64
71770;BME280;59605;52.122;5.420;2022-10-16T02:53:01;101047.75;;;20.61;58.65
71770;BME280;59605;52.122;5.420;2022-10-16T02:55:28;101045.16;;;20.61;58.66
71770;BME280;59605;52.122;5.420;2022-10-16T02:57:54;101046.09;;;20.60;58.78
71770;BME280;59605;52.122;5.420;2022-10-16T03:00:21;101049.56;;;20.61;59.04
71770;BME280;59605;52.122;5.420;2022-10-16T03:02:47;101049.56;;;20.61;58.72
71770;BME280;59605;52.122;5.420;2022-10-16T03:05:14;101055.72;;;20.60;59.06
71770;BME280;59605;52.122;5.420;2022-10-16T03:07:40;101057.38;;;20.61;58.65
71770;BME280;59605;52.122;5.420;2022-10-16T03:10:07;101050.50;;;20.60;58.73
71770;BME280;59605;52.122;5.420;2022-10-16T03:12:34;101051.44;;;20.58;58.67
71770;BME280;59605;52.122;5.420;2022-10-16T03:15:00;101034.00;;;20.59;58.83
71770;BME280;59605;52.122;5.420;2022-10-16T03:17:26;101039.22;;;20.59;59.08
71770;BME280;59605;52.122;5.420;2022-10-16T03:19:53;101037.53;;;20.58;58.98
71770;BME280;59605;52.122;5.420;2022-10-16T03:22:20;101046.19;;;20.58;59.02
71770;BME280;59605;52.122;5.420;2022-10-16T03:24:48;101048.81;;;20.58;58.86
71770;BME280;59605;52.122;5.420;2022-10-16T03:27:15;101056.66;;;20.58;58.95
71770;BME280;59605;52.122;5.420;2022-10-16T03:29:41;101042.88;;;20.56;58.77
71770;BME280;59605;52.122;5.420;2022-10-16T03:32:07;101059.38;;;20.57;58.64
71770;BME280;59605;52.122;5.420;2022-10-16T03:34:34;101058.44;;;20.58;58.73
71770;BME280;59605;52.122;5.420;2022-10-16T03:37:00;101055.00;;;20.57;58.65
71770;BME280;59605;52.122;5.420;2022-10-16T03:39:26;101059.50;;;20.55;58.47
71770;BME280;59605;52.122;5.420;2022-10-16T03:41:53;101062.00;;;20.57;58.47
71770;BME280;59605;52.122;5.420;2022-10-16T03:44:19;101065.56;;;20.56;58.60
71770;BME280;59605;52.122;5.420;2022-10-16T03:46:45;101066.41;;;20.56;58.73
71770;BME280;59605;52.122;5.420;2022-10-16T03:49:12;101066.50;;;20.55;58.75
71770;BME280;59605;52.122;5.420;2022-10-16T03:51:38;101069.13;;;20.55;58.67
71770;BME280;59605;52.122;5.420;2022-10-16T03:54:04;101067.44;;;20.54;58.55
71770;BME280;59605;52.122;5.420;2022-10-16T03:56:31;101073.59;;;20.53;58.87
71770;BME280;59605;52.122;5.420;2022-10-16T03:58:57;101070.06;;;20.54;58.51
71770;BME280;59605;52.122;5.420;2022-10-16T04:01:23;101078.84;;;20.53;58.48
71770;BME280;59605;52.122;5.420;2022-10-16T04:03:50;101079.69;;;20.53;58.48
71770;BME280;59605;52.122;5.420;2022-10-16T04:06:16;101079.81;;;20.52;58.73
71770;BME280;59605;52.122;5.420;2022-10-16T04:08:43;101080.63;;;20.52;58.40
71770;BME280;59605;52.122;5.420;2022-10-16T04:11:10;101091.06;;;20.52;58.48
71770;BME280;59605;52.122;5.420;2022-10-16T04:13:36;101079.81;;;20.52;58.79
71770;BME280;59605;52.122;5.420;2022-10-16T04:16:03;101089.41;;;20.51;58.46
71770;BME280;59605;52.122;5.420;2022-10-16T04:18:29;101100.81;;;20.50;58.70
71770;BME280;59605;52.122;5.420;2022-10-16T04:20:56;101098.06;;;20.52;58.76
71770;BME280;59605;52.122;5.420;2022-10-16T04:23:22;101108.63;;;20.50;58.63
71770;BME280;59605;52.122;5.420;2022-10-16T04:25:51;101108.63;;;20.50;58.66
71770;BME280;59605;52.122;5.420;2022-10-16T04:28:17;101106.03;;;20.50;58.75
71770;BME280;59605;52.122;5.420;2022-10-16T04:30:43;101116.47;;;20.50;58.55
71770;BME280;59605;52.122;5.420;2022-10-16T04:33:10;101115.63;;;20.50;58.59
71770;BME280;59605;52.122;5.420;2022-10-16T04:35:36;101124.41;;;20.49;58.72
71770;BME280;59605;52.122;5.420;2022-10-16T04:38:03;101120.03;;;20.49;58.27
71770;BME280;59605;52.122;5.420;2022-10-16T04:40:29;101129.66;;;20.49;58.43
71770;BME280;59605;52.122;5.420;2022-10-16T04:42:59;101134.88;;;20.49;58.31
71770;BME280;59605;52.122;5.420;2022-10-16T04:45:27;101126.19;;;20.48;58.47
71770;BME280;59605;52.122;5.420;2022-10-16T04:47:59;101134.00;;;20.48;58.52
71770;BME280;59605;52.122;5.420;2022-10-16T04:50:26;101135.81;;;20.48;58.57
71770;BME280;59605;52.122;5.420;2022-10-16T04:52:52;101140.19;;;20.47;58.76
71770;BME280;59605;52.122;5.420;2022-10-16T04:55:19;101144.56;;;20.47;58.25
71770;BME280;59605;52.122;5.420;2022-10-16T04:57:45;101149.78;;;20.47;58.15
71770;BME280;59605;52.122;5.420;2022-10-16T05:00:12;101147.19;;;20.47;58.35
71770;BME280;59605;52.122;5.420;2022-10-16T05:02:38;101150.72;;;20.46;58.66
71770;BME280;59605;52.122;5.420;2022-10-16T05:05:05;101156.81;;;20.46;58.67
71770;BME280;59605;52.122;5.420;2022-10-16T05:07:31;101160.34;;;20.45;58.63
71770;BME280;59605;52.122;5.420;2022-10-16T05:09:58;101160.34;;;20.45;58.47
71770;BME280;59605;52.122;5.420;2022-10-16T05:12:24;101155.13;;;20.45;58.30
71770;BME280;59605;52.122;5.420;2022-10-16T05:14:50;101162.13;;;20.45;58.39
71770;BME280;59605;52.122;5.420;2022-10-16T05:17:17;101164.88;;;20.43;58.65
71770;BME280;59605;52.122;5.420;2022-10-16T05:19:43;101172.59;;;20.45;58.69
71770;BME280;59605;52.122;5.420;2022-10-16T05:22:09;101167.47;;;20.43;58.29
71770;BME280;59605;52.122;5.420;2022-10-16T05:24:36;101177.91;;;20.43;58.39
71770;BME280;59605;52.122;5.420;2022-10-16T05:27:02;101178.84;;;20.42;58.59
71770;BME280;59605;52.122;5.420;2022-10-16T05:29:28;101187.50;;;20.43;58.59
71770;BME280;59605;52.122;5.420;2022-10-16T05:31:55;101184.09;;;20.42;58.20
71770;BME280;59605;52.122;5.420;2022-10-16T05:34:21;101188.38;;;20.43;58.33
71770;BME280;59605;52.122;5.420;2022-10-16T05:36:47;101196.19;;;20.43;58.14
71770;BME280;59605;52.122;5.420;2022-10-16T05:39:15;101198.81;;;20.43;58.54
71770;BME280;59605;52.122;5.420;2022-10-16T05:41:42;101209.38;;;20.42;58.10
71770;BME280;59605;52.122;5.420;2022-10-16T05:44:09;101206.88;;;20.40;58.29
71770;BME280;59605;52.122;5.420;2022-10-16T05:46:35;101212.09;;;20.40;58.28
71770;BME280;59605;52.122;5.420;2022-10-16T05:49:02;101222.53;;;20.40;58.10
71770;BME280;59605;52.122;5.420;2022-10-16T05:51:29;101219.06;;;20.39;58.19
71770;BME280;59605;52.122;5.420;2022-10-16T05:53:55;101219.06;;;20.39;58.10
71770;BME280;59605;52.122;5.420;2022-10-16T05:56:21;101233.09;;;20.38;58.19
71770;BME280;59605;52.122;5.420;2022-10-16T05:58:47;101245.19;;;20.39;58.47
71770;BME280;59605;52.122;5.420;2022-10-16T06:01:16;101236.53;;;20.39;58.31
71770;BME280;59605;52.122;5.420;2022-10-16T06:03:44;101246.97;;;20.39;58.16
71770;BME280;59605;52.122;5.420;2022-10-16T06:06:12;101241.75;;;20.39;58.50
71770;BME280;59605;52.122;5.420;2022-10-16T06:08:42;101243.41;;;20.40;58.24
71770;BME280;59605;52.122;5.420;2022-10-16T06:11:17;101248.75;;;20.38;58.25
71770;BME280;59605;52.122;5.420;2022-10-16T06:13:44;101247.91;;;20.38;58.69
71770;BME280;59605;52.122;5.420;2022-10-16T06:16:12;101251.44;;;20.37;58.58
71770;BME280;59605;52.122;5.420;2022-10-16T06:18:38;101261.88;;;20.37;58.56
71770;BME280;59605;52.122;5.420;2022-10-16T06:21:14;101261.06;;;20.36;58.88
71770;BME280;59605;52.122;5.420;2022-10-16T06:23:42;101273.19;;;20.37;58.86
71770;BME280;59605;52.122;5.420;2022-10-16T06:26:11;101273.19;;;20.37;59.14
71770;BME280;59605;52.122;5.420;2022-10-16T06:28:38;101285.38;;;20.37;59.30
71770;BME280;59605;52.122;5.420;2022-10-16T06:31:06;101280.16;;;20.37;59.38
71770;BME280;59605;52.122;5.420;2022-10-16T06:33:34;101281.94;;;20.36;58.97
71770;BME280;59605;52.122;5.420;2022-10-16T06:36:15;101281.00;;;20.37;59.50
71770;BME280;59605;52.122;5.420;2022-10-16T06:38:43;101288.00;;;20.37;59.42
71770;BME280;59605;52.122;5.420;2022-10-16T06:41:13;101287.06;;;20.38;59.05
71770;BME280;59605;52.122;5.420;2022-10-16T06:43:39;101293.03;;;20.40;59.36
71770;BME280;59605;52.122;5.420;2022-10-16T06:46:08;101299.88;;;20.41;59.12
71770;BME280;59605;52.122;5.420;2022-10-16T06:48:35;101314.63;;;20.42;59.43
71770;BME280;59605;52.122;5.420;2022-10-16T06:53:35;101322.44;;;20.42;59.47
71770;BME280;59605;52.122;5.420;2022-10-16T06:56:19;101330.28;;;20.42;59.54
71770;BME280;59605;52.122;5.420;2022-10-16T06:58:47;101320.78;;;20.41;59.08
71770;BME280;59605;52.122;5.420;2022-10-16T07:01:14;101321.75;;;20.40;59.25
71770;BME280;59605;52.122;5.420;2022-10-16T07:03:43;101325.06;;;20.42;59.47
71770;BME280;59605;52.122;5.420;2022-10-16T07:06:11;101322.34;;;20.44;59.57
71770;BME280;59605;52.122;5.420;2022-10-16T07:08:39;101312.72;;;20.44;59.71
71770;BME280;59605;52.122;5.420;2022-10-16T07:11:08;101321.41;;;20.45;59.52
71770;BME280;59605;52.122;5.420;2022-10-16T07:13:39;101329.13;;;20.46;59.58
71770;BME280;59605;52.122;5.420;2022-10-16T07:16:17;101330.81;;;20.47;59.72
71770;BME280;59605;52.122;5.420;2022-10-16T07:18:44;101338.66;;;20.47;59.67
71770;BME280;59605;52.122;5.420;2022-10-16T07:21:17;101334.25;;;20.48;60.17
71770;BME280;59605;52.122;5.420;2022-10-16T07:23:50;101342.06;;;20.48;59.89
71770;BME280;59605;52.122;5.420;2022-10-16T07:26:16;101346.38;;;20.49;60.50
71770;BME280;59605;52.122;5.420;2022-10-16T07:28:43;101350.50;;;20.51;60.32
71770;BME280;59605;52.122;5.420;2022-10-16T07:31:12;101356.69;;;20.50;60.59
71770;BME280;59605;52.122;5.420;2022-10-16T07:33:41;101355.72;;;20.51;60.41
71770;BME280;59605;52.122;5.420;2022-10-16T07:36:09;101369.66;;;20.52;60.52
71770;BME280;59605;52.122;5.420;2022-10-16T07:38:41;101370.47;;;20.52;60.41
71770;BME280;59605;52.122;5.420;2022-10-16T07:41:11;101377.38;;;20.53;61.02
71770;BME280;59605;52.122;5.420;2022-10-16T07:43:38;101371.28;;;20.53;61.04
71770;BME280;59605;52.122;5.420;2022-10-16T07:46:04;101380.09;;;20.52;60.71
71770;BME280;59605;52.122;5.420;2022-10-16T07:48:33;101391.38;;;20.52;61.03
71770;BME280;59605;52.122;5.420;2022-10-16T07:51:02;101400.03;;;20.53;61.15
71770;BME280;59605;52.122;5.420;2022-10-16T07:53:29;101407.84;;;20.53;61.08
71770;BME280;59605;52.122;5.420;2022-10-16T07:55:59;101424.38;;;20.53;60.92
71770;BME280;59605;52.122;5.420;2022-10-16T07:58:27;101426.03;;;20.54;60.75
71770;BME280;59605;52.122;5.420;2022-10-16T08:00:54;101413.94;;;20.53;61.03
71770;BME280;59605;52.122;5.420;2022-10-16T08:03:21;101432.94;;;20.55;60.86
71770;BME280;59605;52.122;5.420;2022-10-16T08:05:47;101432.09;;;20.55;61.03
71770;BME280;59605;52.122;5.420;2022-10-16T08:08:15;101421.66;;;20.55;60.70
71770;BME280;59605;52.122;5.420;2022-10-16T08:10:42;101426.88;;;20.55;60.91
71770;BME280;59605;52.122;5.420;2022-10-16T08:13:09;101428.56;;;20.56;61.54
71770;BME280;59605;52.122;5.420;2022-10-16T08:15:35;101439.81;;;20.56;61.18
71770;BME280;59605;52.122;5.420;2022-10-16T08:18:04;101439.81;;;20.56;61.59
71770;BME280;59605;52.122;5.420;2022-10-16T08:20:32;101446.63;;;20.59;61.49
71770;BME280;59605;52.122;5.420;2022-10-16T08:23:01;101447.44;;;20.60;61.69
71770;BME280;59605;52.122;5.420;2022-10-16T08:25:28;101444.84;;;20.60;61.33
71770;BME280;59605;52.122;5.420;2022-10-16T08:27:55;101455.28;;;20.60;61.73
71770;BME280;59605;52.122;5.420;2022-10-16T08:30:23;101456.97;;;20.61;61.37
71770;BME280;59605;52.122;5.420;2022-10-16T08:32:50;101456.00;;;20.62;61.90
71770;BME280;59605;52.122;5.420;2022-10-16T08:35:16;101454.25;;;20.62;61.82
71770;BME280;59605;52.122;5.420;2022-10-16T08:37:43;101457.69;;;20.63;61.85
71770;BME280;59605;52.122;5.420;2022-10-16T08:40:20;101467.19;;;20.64;61.56
71770;BME280;59605;52.122;5.420;2022-10-16T08:42:57;101461.97;;;20.64;61.31
71770;BME280;59605;52.122;5.420;2022-10-16T08:50:55;101483.50;;;20.67;62.06
71770;BME280;59605;52.122;5.420;2022-10-16T08:53:38;101487.78;;;20.68;61.66
71770;BME280;59605;52.122;5.420;2022-10-16T08:56:07;101488.63;;;20.69;61.92
71770;BME280;59605;52.122;5.420;2022-10-16T08:58:34;101490.28;;;20.70;62.09
71770;BME280;59605;52.122;5.420;2022-10-16T09:01:03;101499.06;;;20.69;62.29
71770;BME280;59605;52.122;5.420;2022-10-16T09:06:48;101505.97;;;20.70;61.88
71770;BME280;59605;52.122;5.420;2022-10-16T09:14:58;101510.25;;;20.71;62.15
71770;BME280;59605;52.122;5.420;2022-10-16T09:20:32;101511.91;;;20.72;61.83
71770;BME280;59605;52.122;5.420;2022-10-16T09:23:17;101522.28;;;20.73;62.03
71770;BME280;59605;52.122;5.420;2022-10-16T09:25:47;101529.16;;;20.74;62.01
71770;BME280;59605;52.122;5.420;2022-10-16T09:28:15;101537.00;;;20.74;62.09
71770;BME280;59605;52.122;5.420;2022-10-16T09:30:42;101527.41;;;20.75;62.44
71770;BME280;59605;52.122;5.420;2022-10-16T09:33:10;101537.75;;;20.77;62.50
71770;BME280;59605;52.122;5.420;2022-10-16T09:35:39;101535.97;;;20.77;62.49
71770;BME280;59605;52.122;5.420;2022-10-16T09:38:06;101548.09;;;20.78;62.15
71770;BME280;59605;52.122;5.420;2022-10-16T09:40:37;101548.09;;;20.78;62.45
71770;BME280;59605;52.122;5.420;2022-10-16T09:45:58;101536.78;;;20.78;62.33
71770;BME280;59605;52.122;5.420;2022-10-16T09:48:30;101539.38;;;20.78;62.30
71770;BME280;59605;52.122;5.420;2022-10-16T09:51:00;101547.22;;;20.78;62.36
71770;BME280;59605;52.122;5.420;2022-10-16T09:53:39;101549.00;;;20.77;62.45
71770;BME280;59605;52.122;5.420;2022-10-16T09:56:05;101567.31;;;20.77;62.06
71770;BME280;59605;52.122;5.420;2022-10-16T09:58:41;101556.84;;;20.77;62.28
71770;BME280;59605;52.122;5.420;2022-10-16T10:01:12;101567.19;;;20.79;62.30
71770;BME280;59605;52.122;5.420;2022-10-16T10:03:41;101563.75;;;20.78;61.95
71770;BME280;59605;52.122;5.420;2022-10-16T10:06:26;101566.38;;;20.78;61.92
71770;BME280;59605;52.122;5.420;2022-10-16T10:08:59;101568.13;;;20.78;61.62
71770;BME280;59605;52.122;5.420;2022-10-16T10:11:46;101572.53;;;20.77;61.61
71770;BME280;59605;52.122;5.420;2022-10-16T10:14:21;101564.59;;;20.79;61.69
71770;BME280;59605;52.122;5.420;2022-10-16T10:16:49;101568.13;;;20.78;61.79
71770;BME280;59605;52.122;5.420;2022-10-16T10:19:27;101564.47;;;20.80;62.02
71770;BME280;59605;52.122;5.420;2022-10-16T10:21:58;101568.78;;;20.81;61.58
71770;BME280;59605;52.122;5.420;2022-10-16T10:24:24;101579.13;;;20.83;61.70
71770;BME280;59605;52.122;5.420;2022-10-16T10:27:08;101577.31;;;20.83;61.49
71770;BME280;59605;52.122;5.420;2022-10-16T10:30:01;101580.97;;;20.81;61.60
71770;BME280;59605;52.122;5.420;2022-10-16T10:32:36;101587.28;;;20.78;61.24
71770;BME280;59605;52.122;5.420;2022-10-16T10:35:15;101596.88;;;20.78;61.47
71770;BME280;59605;52.122;5.420;2022-10-16T10:46:02;101598.13;;;20.85;61.84
71770;BME280;59605;52.122;5.420;2022-10-16T10:51:09;101605.03;;;20.86;62.07
71770;BME280;59605;52.122;5.420;2022-10-16T10:56:55;101608.56;;;20.85;62.78
71770;BME280;59605;52.122;5.420;2022-10-16T11:02:04;101608.34;;;20.88;62.34
71770;BME280;59605;52.122;5.420;2022-10-16T11:04:53;101613.47;;;20.89;62.09
71770;BME280;59605;52.122;5.420;2022-10-16T11:07:30;101612.66;;;20.89;62.03
71770;BME280;59605;52.122;5.420;2022-10-16T11:10:03;101622.06;;;20.91;61.96
71770;BME280;59605;52.122;5.420;2022-10-16T11:12:43;101622.19;;;20.90;62.21
71770;BME280;59605;52.122;5.420;2022-10-16T11:15:21;101622.91;;;20.92;61.85
71770;BME280;59605;52.122;5.420;2022-10-16T11:17:52;101626.38;;;20.92;62.16
71770;BME280;59605;52.122;5.420;2022-10-16T11:20:27;101621.13;;;20.92;62.24
71770;BME280;59605;52.122;5.420;2022-10-16T11:23:05;101633.34;;;20.92;62.18
71770;BME280;59605;52.122;5.420;2022-10-16T11:25:33;101634.09;;;20.94;62.67
71770;BME280;59605;52.122;5.420;2022-10-16T11:28:10;101648.09;;;20.93;62.61
71770;BME280;59605;52.122;5.420;2022-10-16T11:30:49;101650.72;;;20.93;62.89
71770;BME280;59605;52.122;5.420;2022-10-16T11:38:48;101649.66;;;20.96;63.24
71770;BME280;59605;52.122;5.420;2022-10-16T11:44:03;101635.47;;;21.00;63.19
71770;BME280;59605;52.122;5.420;2022-10-16T11:46:33;101645.69;;;21.03;63.19
71770;BME280;59605;52.122;5.420;2022-10-16T11:49:25;101643.81;;;21.05;63.56
71770;BME280;59605;52.122;5.420;2022-10-16T11:55:04;101659.16;;;21.09;63.68
71770;BME280;59605;52.122;5.420;2022-10-16T11:57:34;101653.94;;;21.09;63.67
71770;BME280;59605;52.122;5.420;2022-10-16T12:00:09;101658.13;;;21.12;63.63
71770;BME280;59605;52.122;5.420;2022-10-16T12:02:57;101650.91;;;21.16;63.63
71770;BME280;59605;52.122;5.420;2022-10-16T12:05:58;101656.03;;;21.17;63.45
71770;BME280;59605;52.122;5.420;2022-10-16T12:08:27;101662.00;;;21.19;63.40
71770;BME280;59605;52.122;5.420;2022-10-16T12:11:06;101662.72;;;21.21;63.53
71770;BME280;59605;52.122;5.420;2022-10-16T12:13:38;101670.34;;;21.24;63.64
71770;BME280;59605;52.122;5.420;2022-10-16T12:18:32;101672.84;;;21.26;63.53
71770;BME280;59605;52.122;5.420;2022-10-16T12:20:59;101672.78;;;21.27;63.32
71770;BME280;59605;52.122;5.420;2022-10-16T12:23:54;101668.38;;;21.28;63.42
71770;BME280;59605;52.122;5.420;2022-10-16T12:26:31;101656.22;;;21.27;63.48
71770;BME280;59605;52.122;5.420;2022-10-16T12:31:48;101676.81;;;21.32;62.87
71770;BME280;59605;52.122;5.420;2022-10-16T12:34:28;101678.50;;;21.33;63.13
71770;BME280;59605;52.122;5.420;2022-10-16T12:36:55;101686.25;;;21.34;63.00
71770;BME280;59605;52.122;5.420;2022-10-16T12:39:34;101679.97;;;21.37;62.93
71770;BME280;59605;52.122;5.420;2022-10-16T12:42:04;101689.69;;;21.35;62.25
71770;BME280;59605;52.122;5.420;2022-10-16T12:44:34;101684.44;;;21.35;62.84
71770;BME280;59605;52.122;5.420;2022-10-16T12:47:02;101688.75;;;21.36;62.48
71770;BME280;59605;52.122;5.420;2022-10-16T12:49:34;101679.16;;;21.36;62.45
71770;BME280;59605;52.122;5.420;2022-10-16T12:52:01;101674.75;;;21.37;62.36
71770;BME280;59605;52.122;5.420;2022-10-16T13:00:24;101687.59;;;21.40;62.25
71770;BME280;59605;52.122;5.420;2022-10-16T13:05:42;101687.00;;;21.36;62.46
71770;BME280;59605;52.122;5.420;2022-10-16T13:08:37;101682.81;;;21.34;62.21
71770;BME280;59605;52.122;5.420;2022-10-16T13:20:23;101691.06;;;21.27;62.17
71770;BME280;59605;52.122;5.420;2022-10-16T13:23:04;101698.06;;;21.27;62.03
71770;BME280;59605;52.122;5.420;2022-10-16T13:28:43;101704.44;;;21.23;62.32
71770;BME280;59605;52.122;5.420;2022-10-16T13:31:17;101709.66;;;21.23;62.17
71770;BME280;59605;52.122;5.420;2022-10-16T13:33:48;101698.69;;;21.18;60.71
71770;BME280;59605;52.122;5.420;2022-10-16T13:36:22;101711.03;;;21.16;61.94
71770;BME280;59605;52.122;5.420;2022-10-16T13:39:00;101710.91;;;21.17;61.60
71770;BME280;59605;52.122;5.420;2022-10-16T13:41:26;101717.63;;;21.21;62.15
71770;BME280;59605;52.122;5.420;2022-10-16T13:43:54;101712.50;;;21.20;61.99
71770;BME280;59605;52.122;5.420;2022-10-16T13:46:24;101730.78;;;21.20;62.08
71770;BME280;59605;52.122;5.420;2022-10-16T13:49:19;101721.38;;;21.17;62.19
71770;BME280;59605;52.122;5.420;2022-10-16T13:51:58;101713.47;;;21.19;62.20
71770;BME280;59605;52.122;5.420;2022-10-16T13:54:26;101709.97;;;21.18;62.45
71770;BME280;59605;52.122;5.420;2022-10-16T13:56:54;101714.38;;;21.18;62.75
71770;BME280;59605;52.122;5.420;2022-10-16T13:59:36;101708.31;;;21.17;62.78
71770;BME280;59605;52.122;5.420;2022-10-16T14:02:34;101721.31;;;21.19;62.81
71770;BME280;59605;52.122;5.420;2022-10-16T14:05:04;101722.94;;;21.20;62.62
71770;BME280;59605;52.122;5.420;2022-10-16T14:07:33;101725.66;;;21.18;62.92
71770;BME280;59605;52.122;5.420;2022-10-16T14:10:04;101725.66;;;21.18;62.92
71770;BME280;59605;52.122;5.420;2022-10-16T14:12:31;101734.38;;;21.19;63.06
71770;BME280;59605;52.122;5.420;2022-10-16T14:14:59;101728.19;;;21.20;63.29
71770;BME280;59605;52.122;5.420;2022-10-16T14:17:31;101726.53;;;21.19;63.23
71770;BME280;59605;52.122;5.420;2022-10-16T14:20:03;101724.75;;;21.19;63.20
71770;BME280;59605;52.122;5.420;2022-10-16T14:22:35;101721.38;;;21.17;63.12
71770;BME280;59605;52.122;5.420;2022-10-16T14:30:35;101721.31;;;21.19;62.99
71770;BME280;59605;52.122;5.420;2022-10-16T14:33:19;101723.06;;;21.18;63.12
71770;BME280;59605;52.122;5.420;2022-10-16T14:35:46;101729.88;;;21.21;62.94